Time;durP1;ratioP1;P1;durP2;ratioP2;P2;SDS_P1;SDS_P2;PMS_P1;PMS_P2;Temp;Humidity;BMP_temperature;BMP_pressure;BME280_temperature;BME280_humidity;BME280_pressure;Samples;Min_cycle;Max_cycle;Signal;HPM_P1;HPM_P2
2023/10/19 00:01:43;;;;;;;24.17;18.13;;;;;;;13.41;100.00;96590.84;4176141;28;20626;-80
2023/10/19 00:03:47;;;;;;;23.50;18.97;;;;;;;13.43;100.00;96588.91;4171640;28;20729;-80
2023/10/19 00:05:51;;;;;;;25.70;18.83;;;;;;;13.43;100.00;96588.91;4172212;28;20642;-80
2023/10/19 00:07:57;;;;;;;22.03;17.20;;;;;;;13.44;100.00;96598.38;4176075;28;21062;-80
2023/10/19 00:10:03;;;;;;;26.50;19.00;;;;;;;13.44;100.00;96596.63;4171652;28;20626;-80
2023/10/19 00:12:09;;;;;;;26.37;19.87;;;;;;;13.44;100.00;96596.63;4173674;28;20638;-80
2023/10/19 00:14:15;;;;;;;25.90;19.53;;;;;;;13.45;100.00;96602.66;4174720;28;20655;-79
2023/10/19 00:16:22;;;;;;;24.27;19.37;;;;;;;13.41;100.00;96593.47;4171667;28;20620;-80
2023/10/19 00:18:24;;;;;;;26.57;19.30;;;;;;;13.40;100.00;96594.47;4179837;28;21268;-80
2023/10/19 00:20:49;;;;;;;26.37;19.37;;;;;;;13.39;100.00;96596.25;4150611;28;21472;-80
2023/10/19 00:22:52;;;;;;;23.90;19.33;;;;;;;13.38;100.00;96593.78;4201997;28;20645;-80
2023/10/19 00:24:55;;;;;;;26.50;19.90;;;;;;;13.38;100.00;96589.38;4168865;28;20991;-80
2023/10/19 00:27:05;;;;;;;22.97;18.77;;;;;;;13.40;100.00;96597.91;4180842;28;20645;-80
2023/10/19 00:29:25;;;;;;;27.17;19.90;;;;;;;13.40;100.00;96591.84;4187360;28;20703;-80
2023/10/19 00:31:28;;;;;;;25.53;19.40;;;;;;;13.41;100.00;96594.31;4183973;28;20680;-80
2023/10/19 00:33:33;;;;;;;23.73;19.30;;;;;;;13.41;100.00;96583.00;4171999;28;20680;-80
2023/10/19 00:35:35;;;;;;;23.17;18.60;;;;;;;13.42;100.00;96582.84;4202495;28;20960;-80
2023/10/19 00:37:42;;;;;;;24.53;18.97;;;;;;;13.43;100.00;96586.28;4173171;28;20748;-80
2023/10/19 00:39:53;;;;;;;22.80;18.10;;;;;;;13.44;100.00;96585.28;4172988;28;20634;-79
2023/10/19 00:41:57;;;;;;;23.13;19.27;;;;;;;13.43;100.00;96581.88;4156000;28;21046;-80
2023/10/19 00:44:16;;;;;;;20.70;17.50;;;;;;;13.45;100.00;96587.75;4191702;28;20621;-80
2023/10/19 00:46:31;;;;;;;25.93;19.10;;;;;;;13.47;100.00;96579.75;4188509;28;20608;-80
2023/10/19 00:48:34;;;;;;;21.53;17.23;;;;;;;13.47;100.00;96588.44;4186130;28;20639;-80
2023/10/19 00:50:38;;;;;;;26.30;19.30;;;;;;;13.47;100.00;96579.75;4170543;28;20629;-80
2023/10/19 00:52:49;;;;;;;25.00;17.87;;;;;;;13.44;100.00;96580.91;4172111;28;21007;-80
2023/10/19 00:54:58;;;;;;;23.37;18.50;;;;;;;13.45;100.00;96577.28;4174422;28;20638;-80
2023/10/19 00:57:06;;;;;;;21.23;17.83;;;;;;;13.47;100.00;96577.97;4170276;28;20636;-80
2023/10/19 00:59:14;;;;;;;22.30;19.07;;;;;;;13.48;100.00;96576.16;4168236;28;20729;-80
2023/10/19 01:01:21;;;;;;;24.47;18.67;;;;;;;13.48;100.00;96574.34;4173631;28;21428;-80
2023/10/19 01:03:31;;;;;;;22.27;18.77;;;;;;;13.47;100.00;96577.13;4181973;28;21541;-79
2023/10/19 01:05:36;;;;;;;22.83;18.23;;;;;;;13.48;100.00;96573.53;4174318;28;20619;-80
2023/10/19 01:07:44;;;;;;;23.30;18.47;;;;;;;13.49;100.00;96562.91;4149294;28;20671;-79
2023/10/19 01:09:52;;;;;;;27.23;19.50;;;;;;;13.47;100.00;96567.47;4167457;28;20690;-79
2023/10/19 01:12:00;;;;;;;22.50;18.30;;;;;;;13.45;100.00;96558.13;4169473;28;20628;-80
2023/10/19 01:16:38;;;;;;;23.40;17.87;;;;;;;13.46;100.00;96551.94;4229759;27;20735;-81
2023/10/19 01:18:45;;;;;;;25.70;18.77;;;;;;;13.49;100.00;96549.00;4210284;28;21007;-81
2023/10/19 01:20:51;;;;;;;21.60;18.87;;;;;;;13.50;100.00;96534.91;4197859;28;21224;-81
2023/10/19 01:23:20;;;;;;;24.87;18.80;;;;;;;13.52;100.00;96538.19;4207878;28;20680;-81
2023/10/19 01:25:34;;;;;;;24.57;18.90;;;;;;;13.50;100.00;96529.66;4205500;28;21226;-81
2023/10/19 01:27:38;;;;;;;23.83;17.33;;;;;;;13.48;100.00;96529.81;4203551;28;21193;-80
2023/10/19 01:29:42;;;;;;;21.17;18.10;;;;;;;13.50;100.00;96517.41;4204674;28;20662;-81
2023/10/19 01:31:55;;;;;;;23.07;16.80;;;;;;;13.48;100.00;96511.47;4203435;28;20675;-81
2023/10/19 01:34:04;;;;;;;13.57;11.50;;;;;;;13.50;100.00;96513.94;4204895;28;21248;-81
2023/10/19 01:36:14;;;;;;;15.37;11.23;;;;;;;13.56;100.00;96518.53;4177622;28;20748;-81
2023/10/19 01:38:18;;;;;;;14.10;11.40;;;;;;;13.64;100.00;96521.19;4192021;28;20629;-81
2023/10/19 01:40:21;;;;;;;12.03;10.33;;;;;;;13.69;100.00;96520.50;4176600;28;20721;-81
2023/10/19 01:42:24;;;;;;;11.87;10.40;;;;;;;13.77;100.00;96523.16;4188884;28;20617;-81
2023/10/19 01:44:27;;;;;;;12.43;9.73;;;;;;;13.83;100.00;96517.28;4206297;28;20636;-81
2023/10/19 01:46:33;;;;;;;13.40;10.33;;;;;;;13.88;100.00;96508.94;4173655;28;20635;-81
2023/10/19 01:48:37;;;;;;;11.27;9.10;;;;;;;13.96;100.00;96507.09;4200096;28;21080;-81
2023/10/19 01:50:41;;;;;;;13.60;12.20;;;;;;;14.01;100.00;96502.22;4181913;28;20634;-81
2023/10/19 01:52:44;;;;;;;12.27;9.77;;;;;;;14.02;100.00;96501.22;4195082;28;20628;-81
2023/10/19 01:54:55;;;;;;;13.23;11.83;;;;;;;14.04;100.00;96496.59;4165247;28;20710;-81
2023/10/19 01:56:57;;;;;;;16.93;13.13;;;;;;;14.06;100.00;96497.31;4202947;28;20781;-81
2023/10/19 01:59:01;;;;;;;15.33;13.20;;;;;;;14.04;100.00;96495.81;4217355;28;20627;-81
2023/10/19 02:01:08;;;;;;;18.27;14.07;;;;;;;14.03;100.00;96497.63;4184001;28;21292;-81
2023/10/19 02:03:11;;;;;;;15.20;12.53;;;;;;;14.04;100.00;96494.00;4197504;28;20637;-81
2023/10/19 02:05:15;;;;;;;14.60;10.80;;;;;;;14.06;100.00;96502.56;4204799;28;20622;-81
2023/10/19 02:07:20;;;;;;;11.03;9.57;;;;;;;14.09;100.00;96494.38;4186818;28;20983;-81
2023/10/19 02:09:23;;;;;;;9.40;7.30;;;;;;;14.16;100.00;96498.78;4202718;28;20617;-81
2023/10/19 02:11:29;;;;;;;14.00;11.00;;;;;;;14.23;100.00;96489.25;4205403;28;21006;-81
2023/10/19 02:13:31;;;;;;;13.53;10.10;;;;;;;14.26;100.00;96495.97;4188493;28;21252;-81
2023/10/19 02:15:35;;;;;;;12.80;10.80;;;;;;;14.30;100.00;96497.28;4187963;28;21036;-81
2023/10/19 02:17:38;;;;;;;9.63;8.33;;;;;;;14.35;100.00;96489.75;4186231;28;21234;-81
2023/10/19 02:19:43;;;;;;;9.50;8.40;;;;;;;14.38;100.00;96490.22;4188564;28;20669;-81
2023/10/19 02:21:48;;;;;;;18.90;13.87;;;;;;;14.42;100.00;96488.09;4185020;28;20659;-81
2023/10/19 02:23:51;;;;;;;18.77;15.70;;;;;;;14.40;100.00;96483.03;4190376;28;20730;-81
2023/10/19 02:25:53;;;;;;;17.00;13.70;;;;;;;14.38;100.00;96481.53;4198851;28;20690;-81
2023/10/19 02:27:58;;;;;;;13.93;11.83;;;;;;;14.37;100.00;96475.47;4195166;28;21112;-81
2023/10/19 02:30:01;;;;;;;17.30;14.37;;;;;;;14.36;100.00;96468.59;4197812;28;21226;-81
2023/10/19 02:32:06;;;;;;;18.33;15.13;;;;;;;14.35;100.00;96466.13;4190741;28;21034;-81
2023/10/19 02:34:10;;;;;;;17.57;14.10;;;;;;;14.34;100.00;96464.50;4191077;28;20800;-81
2023/10/19 02:36:16;;;;;;;15.93;13.40;;;;;;;14.33;100.00;96455.81;4191529;28;20658;-80
2023/10/19 02:38:18;;;;;;;21.37;14.73;;;;;;;14.32;100.00;96450.72;4161349;28;21249;-81
2023/10/19 02:40:24;;;;;;;19.97;15.07;;;;;;;14.30;100.00;96453.53;4177259;28;20659;-81
2023/10/19 02:42:27;;;;;;;18.17;15.20;;;;;;;14.29;100.00;96440.56;4176880;28;20657;-81
2023/10/19 02:44:32;;;;;;;17.63;14.40;;;;;;;14.26;100.00;96446.97;4172498;28;20743;-80
2023/10/19 02:46:38;;;;;;;17.47;14.20;;;;;;;14.24;100.00;96448.94;4207460;28;20627;-80
2023/10/19 02:48:44;;;;;;;18.30;15.47;;;;;;;14.23;100.00;96442.06;4181681;28;20639;-80
2023/10/19 02:50:47;;;;;;;17.40;14.20;;;;;;;14.22;100.00;96434.34;4192790;28;21168;-80
2023/10/19 02:52:50;;;;;;;18.80;15.10;;;;;;;14.21;100.00;96432.72;4180738;28;20722;-80
2023/10/19 02:54:56;;;;;;;19.53;14.07;;;;;;;14.20;100.00;96436.34;4191679;28;20992;-80
2023/10/19 02:57:00;;;;;;;17.50;13.80;;;;;;;14.20;100.00;96433.72;4172580;28;20670;-80
2023/10/19 02:59:03;;;;;;;19.63;13.93;;;;;;;14.20;100.00;96436.34;4168193;28;20638;-81
2023/10/19 03:01:17;;;;;;;18.57;14.43;;;;;;;14.19;100.00;96435.53;4190930;28;20668;-80
2023/10/19 03:03:19;;;;;;;18.27;14.37;;;;;;;14.19;100.00;96434.69;4187968;28;21037;-80
2023/10/19 03:05:25;;;;;;;15.83;13.43;;;;;;;14.17;100.00;96426.97;4186756;28;20635;-80
2023/10/19 03:07:27;;;;;;;15.77;13.40;;;;;;;14.17;100.00;96429.59;4194473;28;21174;-80
2023/10/19 03:09:31;;;;;;;16.00;13.83;;;;;;;14.16;100.00;96429.78;4163919;28;20626;-80
2023/10/19 03:11:34;;;;;;;17.77;14.67;;;;;;;14.15;100.00;96438.66;4158833;28;21358;-80
2023/10/19 03:13:37;;;;;;;14.73;12.73;;;;;;;14.16;100.00;96435.00;4207523;28;20630;-80
2023/10/19 03:15:43;;;;;;;16.33;12.97;;;;;;;14.15;100.00;96434.22;4189563;28;20805;-80
2023/10/19 03:17:48;;;;;;;17.30;13.80;;;;;;;14.15;100.00;96438.66;4151856;28;21042;-80
2023/10/19 03:19:51;;;;;;;16.80;12.97;;;;;;;14.15;100.00;96431.59;4174373;28;21505;-80
2023/10/19 03:21:55;;;;;;;16.97;13.30;;;;;;;14.17;100.00;96431.41;4176145;28;20734;-80
2023/10/19 03:24:01;;;;;;;15.77;11.90;;;;;;;14.17;100.00;96434.84;4159432;28;20759;-80
2023/10/19 03:26:27;;;;;;;15.50;13.07;;;;;;;14.17;100.00;96429.59;4173940;28;21286;-80
2023/10/19 03:28:35;;;;;;;18.57;14.30;;;;;;;14.16;100.00;96429.78;4154725;28;20640;-79
2023/10/19 03:30:39;;;;;;;16.57;12.17;;;;;;;14.16;100.00;96421.91;4152269;28;21283;-80
2023/10/19 03:32:43;;;;;;;15.60;12.50;;;;;;;14.18;100.00;96425.19;4172456;28;20967;-80
2023/10/19 03:34:50;;;;;;;15.10;12.53;;;;;;;14.16;100.00;96417.50;4191537;28;20673;-80
2023/10/19 03:36:54;;;;;;;14.93;13.27;;;;;;;14.16;100.00;96409.63;4167444;28;20713;-80
2023/10/19 03:39:00;;;;;;;16.53;13.00;;;;;;;14.13;100.00;96406.50;4157508;28;20992;-80
2023/10/19 03:41:09;;;;;;;16.33;12.77;;;;;;;14.10;100.00;96412.09;4161618;28;20718;-79
2023/10/19 03:43:17;;;;;;;16.00;12.70;;;;;;;14.07;100.00;96401.94;4202169;28;21262;-79
2023/10/19 03:45:23;;;;;;;14.63;11.47;;;;;;;14.00;100.00;96408.81;4189417;28;21241;-79
2023/10/19 03:47:31;;;;;;;17.50;13.27;;;;;;;13.98;100.00;96405.56;4191533;28;20626;-80
2023/10/19 03:49:39;;;;;;;15.47;12.77;;;;;;;13.98;100.00;96410.78;4206989;28;22485;-80
2023/10/19 03:51:58;;;;;;;15.43;12.87;;;;;;;13.97;100.00;96403.91;4204581;28;21230;-80
2023/10/19 03:54:09;;;;;;;14.77;13.20;;;;;;;13.93;100.00;96393.91;4191329;28;20638;-80
2023/10/19 03:56:12;;;;;;;15.90;12.97;;;;;;;13.92;100.00;96400.13;4177375;28;21125;-80
2023/10/19 03:58:15;;;;;;;15.67;11.90;;;;;;;13.91;100.00;96398.50;4180152;28;20654;-80
2023/10/19 04:00:21;;;;;;;16.37;13.30;;;;;;;13.89;100.00;96385.56;4179227;28;20648;-80
2023/10/19 04:02:27;;;;;;;14.80;12.10;;;;;;;13.87;100.00;96387.53;4191518;28;20665;-80
2023/10/19 04:04:29;;;;;;;14.83;12.30;;;;;;;13.85;100.00;96394.75;4194540;28;20629;-79
2023/10/19 04:06:33;;;;;;;14.60;12.40;;;;;;;13.82;100.00;96387.22;4194282;28;21285;-79
2023/10/19 04:08:37;;;;;;;17.40;13.47;;;;;;;13.80;100.00;96381.34;4186624;28;20636;-80
2023/10/19 04:10:44;;;;;;;17.90;12.73;;;;;;;13.80;100.00;96375.25;4204511;28;20629;-80
2023/10/19 04:12:47;;;;;;;16.70;13.17;;;;;;;13.78;100.00;96388.53;4159723;28;20654;-82
2023/10/19 04:14:50;;;;;;;15.03;12.23;;;;;;;13.76;100.00;96377.41;4175789;28;20649;-82
2023/10/19 04:16:55;;;;;;;13.70;11.90;;;;;;;13.73;100.00;96369.88;4173624;28;20704;-82
2023/10/19 04:18:59;;;;;;;21.80;12.87;;;;;;;13.72;100.00;96362.97;4193290;28;20773;-82
2023/10/19 04:21:03;;;;;;;17.50;12.70;;;;;;;13.69;100.00;96365.13;4189571;28;20744;-82
2023/10/19 04:23:10;;;;;;;16.10;10.87;;;;;;;13.67;100.00;96362.66;4174571;28;20642;-82
2023/10/19 04:25:18;;;;;;;18.27;12.07;;;;;;;13.64;100.00;96354.34;4190396;28;20671;-82
2023/10/19 04:27:23;;;;;;;20.77;11.90;;;;;;;13.61;100.00;96357.28;4190409;28;20728;-82
2023/10/19 04:29:27;;;;;;;35.63;12.97;;;;;;;13.60;100.00;96354.81;4178777;28;20641;-83
2023/10/19 04:31:30;;;;;;;25.00;10.73;;;;;;;13.58;100.00;96357.63;4187242;28;20644;-82
2023/10/19 04:33:34;;;;;;;15.47;10.40;;;;;;;13.55;100.00;96350.09;4193441;28;20719;-82
2023/10/19 04:35:37;;;;;;;21.57;11.10;;;;;;;13.54;100.00;96342.38;4178002;28;20643;-82
2023/10/19 04:37:42;;;;;;;16.23;9.73;;;;;;;13.52;100.00;96342.56;4191870;28;20705;-79
2023/10/19 04:39:46;;;;;;;17.47;10.47;;;;;;;13.51;100.00;96338.28;4190640;28;20641;-79
2023/10/19 04:41:50;;;;;;;13.93;9.57;;;;;;;13.49;100.00;96339.47;4192273;28;20634;-80
2023/10/19 04:43:54;;;;;;;21.67;10.60;;;;;;;13.46;100.00;96337.97;4174375;28;21038;-80
2023/10/19 04:45:58;;;;;;;13.77;10.10;;;;;;;13.45;100.00;96338.94;4157650;28;20634;-80
2023/10/19 04:48:04;;;;;;;17.87;9.57;;;;;;;13.44;100.00;96339.94;4177718;28;21073;-80
2023/10/19 04:50:10;;;;;;;15.40;9.90;;;;;;;13.43;100.00;96340.91;4185480;28;20731;-79
2023/10/19 04:52:13;;;;;;;18.93;10.07;;;;;;;13.44;100.00;96339.09;4192975;28;20625;-80
2023/10/19 04:54:17;;;;;;;21.07;10.40;;;;;;;13.41;100.00;96334.19;4192684;28;20618;-80
2023/10/19 04:56:20;;;;;;;17.30;10.20;;;;;;;13.40;100.00;96337.81;4172556;28;21000;-80
2023/10/19 04:58:25;;;;;;;22.70;10.60;;;;;;;13.39;100.00;96339.59;4189780;28;20684;-81
2023/10/19 05:00:28;;;;;;;16.60;9.20;;;;;;;13.36;100.00;96337.31;4175236;28;20638;-80
2023/10/19 05:02:30;;;;;;;16.30;9.57;;;;;;;13.33;100.00;96332.41;4171801;28;21529;-81
2023/10/19 05:04:35;;;;;;;22.57;9.77;;;;;;;13.32;100.00;96332.56;4151107;28;20663;-82
2023/10/19 05:06:39;;;;;;;26.27;10.70;;;;;;;13.31;100.00;96338.81;4181607;28;20633;-81
2023/10/19 05:08:42;;;;;;;19.97;11.37;;;;;;;13.31;100.00;96330.94;4169606;28;20635;-81
2023/10/19 05:10:44;;;;;;;20.90;9.43;;;;;;;13.28;100.00;96321.63;4193362;28;20628;-81
2023/10/19 05:12:47;;;;;;;26.93;11.13;;;;;;;13.28;100.00;96326.84;4198094;28;20638;-80
2023/10/19 05:14:52;;;;;;;42.40;18.23;;;;;;;13.28;100.00;96315.56;4156853;28;20633;-79
2023/10/19 05:16:55;;;;;;;27.13;11.50;;;;;;;13.27;100.00;96319.16;4184518;28;20741;-83
2023/10/19 05:18:59;;;;;;;28.83;12.30;;;;;;;13.25;100.00;96316.72;4174576;28;20609;-81
2023/10/19 05:21:03;;;;;;;28.17;12.13;;;;;;;13.25;100.00;96323.75;4203566;28;20646;-82
2023/10/19 05:23:06;;;;;;;37.57;13.23;;;;;;;13.23;100.00;96321.31;4189421;28;20731;-82
2023/10/19 05:25:09;;;;;;;20.67;12.07;;;;;;;13.20;100.00;96326.88;4189394;28;20616;-82
2023/10/19 05:27:14;;;;;;;23.57;12.90;;;;;;;13.18;100.00;96322.75;4185202;28;21016;-82
2023/10/19 05:29:19;;;;;;;25.57;11.20;;;;;;;13.16;100.00;96321.31;4168213;28;21227;-82
2023/10/19 05:31:24;;;;;;;19.03;10.30;;;;;;;13.14;100.00;96323.25;4150906;28;20684;-81
2023/10/19 05:33:29;;;;;;;17.37;11.80;;;;;;;13.10;100.00;96330.63;4157018;28;20991;-82
2023/10/19 05:35:34;;;;;;;20.33;11.87;;;;;;;13.09;100.00;96325.53;4158794;28;20612;-82
2023/10/19 05:37:38;;;;;;;17.70;9.73;;;;;;;13.06;100.00;96331.91;4197948;28;20656;-82
2023/10/19 05:39:42;;;;;;;23.03;10.60;;;;;;;13.03;100.00;96327.00;4187845;28;21202;-82
2023/10/19 05:41:45;;;;;;;32.27;12.00;;;;;;;13.02;100.00;96330.63;4187981;28;20632;-82
2023/10/19 05:43:49;;;;;;;16.53;11.63;;;;;;;12.96;100.00;96326.03;4175163;28;20637;-82
2023/10/19 05:45:52;;;;;;;14.83;10.97;;;;;;;12.92;100.00;96323.91;4165632;28;20692;-82
2023/10/19 05:47:57;;;;;;;14.33;9.87;;;;;;;12.91;100.00;96330.91;4170043;28;20627;-82
2023/10/19 05:50:00;;;;;;;16.53;10.90;;;;;;;12.92;100.00;96329.13;4187877;28;20624;-80
2023/10/19 05:52:04;;;;;;;16.57;10.60;;;;;;;12.91;100.00;96336.16;4190346;28;20687;-81
2023/10/19 05:54:08;;;;;;;14.90;11.00;;;;;;;12.91;100.00;96332.72;4176983;28;20975;-82
2023/10/19 05:56:11;;;;;;;14.00;10.97;;;;;;;12.90;100.00;96352.00;4176531;28;20636;-82
2023/10/19 05:58:17;;;;;;;17.30;10.67;;;;;;;12.89;100.00;96340.72;4188888;28;20722;-81
2023/10/19 06:00:20;;;;;;;18.17;11.50;;;;;;;12.89;100.00;96337.31;4187783;28;21224;-81
2023/10/19 06:02:22;;;;;;;19.93;10.97;;;;;;;12.88;100.00;96336.47;4174833;28;20636;-81
2023/10/19 06:04:37;;;;;;;22.73;11.90;;;;;;;12.87;100.00;96350.56;4183586;28;20621;-81
2023/10/19 06:06:41;;;;;;;16.70;11.40;;;;;;;12.87;100.00;96358.41;4203432;28;20628;-81
2023/10/19 06:08:44;;;;;;;14.50;10.10;;;;;;;12.88;100.00;96346.13;4178794;28;20615;-80
2023/10/19 06:10:51;;;;;;;13.17;9.57;;;;;;;12.86;100.00;96351.53;4190503;28;20635;-81
2023/10/19 06:12:55;;;;;;;19.00;9.97;;;;;;;12.84;100.00;96342.22;4164131;28;20672;-81
2023/10/19 06:14:57;;;;;;;12.30;9.70;;;;;;;12.85;100.00;96349.91;4163119;28;20632;-81
2023/10/19 06:17:01;;;;;;;16.57;10.33;;;;;;;12.88;100.00;96344.31;4191810;28;20724;-81
2023/10/19 06:19:05;;;;;;;16.20;10.53;;;;;;;12.88;100.00;96346.94;4187438;28;20660;-81
2023/10/19 06:21:10;;;;;;;19.37;10.03;;;;;;;12.86;100.00;96348.91;4193163;28;20625;-81
2023/10/19 06:23:13;;;;;;;12.73;9.73;;;;;;;12.87;100.00;96345.31;4174444;28;20670;-80
2023/10/19 06:25:17;;;;;;;12.17;9.63;;;;;;;12.88;100.00;96338.28;4171461;28;20635;-81
2023/10/19 06:27:20;;;;;;;16.27;10.27;;;;;;;12.87;100.00;96331.41;4190566;28;20632;-80
2023/10/19 06:29:27;;;;;;;20.30;10.53;;;;;;;12.83;100.00;96336.16;4195998;28;20656;-80
2023/10/19 06:31:30;;;;;;;13.97;9.40;;;;;;;12.78;100.00;96338.41;4194877;28;20664;-81
2023/10/19 06:33:33;;;;;;;12.67;10.00;;;;;;;12.78;100.00;96341.03;4198169;28;22077;-81
2023/10/19 06:35:37;;;;;;;15.63;10.17;;;;;;;12.81;100.00;96342.50;4191200;28;20620;-81
2023/10/19 06:37:40;;;;;;;11.57;10.30;;;;;;;12.83;100.00;96343.19;4191174;28;20969;-81
2023/10/19 06:39:44;;;;;;;16.60;11.00;;;;;;;12.84;100.00;96348.25;4180135;28;21033;-81
2023/10/19 06:41:49;;;;;;;15.80;11.57;;;;;;;12.84;100.00;96353.50;4188265;28;21056;-81
2023/10/19 06:43:52;;;;;;;19.87;10.77;;;;;;;12.84;100.00;96350.88;4188388;28;20642;-81
2023/10/19 06:45:56;;;;;;;16.17;10.20;;;;;;;12.88;100.00;96352.16;4189149;28;20634;-81
2023/10/19 06:48:00;;;;;;;18.40;9.90;;;;;;;12.91;100.00;96353.66;4165641;28;20633;-81
2023/10/19 06:50:05;;;;;;;18.77;10.57;;;;;;;12.95;100.00;96349.75;4175445;28;21138;-80
2023/10/19 06:52:11;;;;;;;13.43;9.67;;;;;;;12.99;100.00;96344.03;4187354;28;21301;-81
2023/10/19 06:54:15;;;;;;;15.60;10.93;;;;;;;13.04;100.00;96343.56;4188851;28;20669;-80
2023/10/19 06:56:19;;;;;;;17.33;10.80;;;;;;;13.07;100.00;96344.03;4189814;28;20782;-81
2023/10/19 06:58:26;;;;;;;17.53;10.57;;;;;;;13.11;100.00;96347.13;4189749;28;20648;-81
2023/10/19 07:00:28;;;;;;;17.60;10.50;;;;;;;13.13;100.00;96346.00;4195182;28;20637;-81
2023/10/19 07:02:31;;;;;;;21.93;10.70;;;;;;;13.17;100.00;96349.94;4192461;28;20739;-81
2023/10/19 07:04:35;;;;;;;16.40;10.90;;;;;;;13.21;100.00;96346.00;4163681;28;20660;-81
2023/10/19 07:06:38;;;;;;;14.77;10.83;;;;;;;13.24;100.00;96353.53;4173838;28;21026;-81
2023/10/19 07:08:41;;;;;;;13.17;9.70;;;;;;;13.27;100.00;96348.78;4179881;28;20935;-81
2023/10/19 07:10:45;;;;;;;15.00;9.67;;;;;;;13.31;100.00;96350.09;4190143;28;20640;-81
2023/10/19 07:12:50;;;;;;;23.43;17.17;;;;;;;13.37;100.00;96351.25;4191827;28;21310;-81
2023/10/19 07:14:53;;;;;;;19.50;14.50;;;;;;;13.41;100.00;96357.78;4190117;28;20958;-81
2023/10/19 07:16:56;;;;;;;16.90;13.50;;;;;;;13.47;100.00;96352.72;4192358;28;20689;-81
2023/10/19 07:19:00;;;;;;;19.80;13.70;;;;;;;13.50;100.00;96352.38;4197183;28;20658;-81
2023/10/19 07:21:04;;;;;;;16.33;13.83;;;;;;;13.57;100.00;96360.41;4173808;28;20645;-81
2023/10/19 07:23:09;;;;;;;17.17;14.47;;;;;;;13.62;100.00;96356.31;4157121;28;21206;-81
2023/10/19 07:25:14;;;;;;;15.97;12.07;;;;;;;13.66;100.00;96353.16;4191878;28;20695;-80
2023/10/19 07:27:18;;;;;;;14.90;11.67;;;;;;;13.71;100.00;96357.91;4173859;28;20627;-81
2023/10/19 07:29:43;;;;;;;12.10;10.57;;;;;;;13.73;100.00;96351.53;4177104;28;20629;-81
2023/10/19 07:31:46;;;;;;;14.20;11.13;;;;;;;13.78;100.00;96351.84;4193520;28;20640;-80
2023/10/19 07:33:50;;;;;;;13.57;10.73;;;;;;;13.82;100.00;96352.34;4172468;28;20624;-81
2023/10/19 07:35:54;;;;;;;14.93;11.70;;;;;;;13.82;100.00;96355.78;4176230;28;20653;-81
2023/10/19 07:37:57;;;;;;;14.47;10.60;;;;;;;13.83;100.00;96349.56;4173118;28;20622;-81
2023/10/19 07:40:00;;;;;;;15.30;11.00;;;;;;;13.85;100.00;96358.06;4172166;28;20659;-80
2023/10/19 07:42:06;;;;;;;14.87;11.20;;;;;;;13.85;100.00;96352.81;4172032;28;20623;-81
2023/10/19 07:44:11;;;;;;;18.73;11.33;;;;;;;13.87;100.00;96356.06;4171506;28;20731;-81
2023/10/19 07:46:15;;;;;;;16.30;11.60;;;;;;;13.90;100.00;96355.75;4190043;28;20630;-82
2023/10/19 07:48:18;;;;;;;14.77;10.80;;;;;;;13.93;100.00;96354.59;4187984;28;20656;-81
2023/10/19 07:50:22;;;;;;;14.20;11.57;;;;;;;13.95;100.00;96350.84;4184516;28;20629;-80
2023/10/19 07:52:26;;;;;;;14.03;11.33;;;;;;;14.00;100.00;96347.72;4184096;28;20638;-79
2023/10/19 07:54:30;;;;;;;14.87;11.10;;;;;;;14.03;100.00;96345.56;4175746;28;20645;-80
2023/10/19 07:56:33;;;;;;;16.53;12.10;;;;;;;14.09;100.00;96358.03;4193104;28;20625;-81
2023/10/19 07:58:37;;;;;;;14.37;10.77;;;;;;;14.14;100.00;96355.72;4167089;28;21335;-80
2023/10/19 08:00:42;;;;;;;14.07;11.63;;;;;;;14.19;100.00;96349.00;4179284;28;21043;-81
2023/10/19 08:02:45;;;;;;;15.13;11.40;;;;;;;14.24;100.00;96349.28;4179275;28;20680;-81
2023/10/19 08:04:48;;;;;;;16.30;11.13;;;;;;;14.31;100.00;96349.41;4187163;28;20699;-81
2023/10/19 08:06:51;;;;;;;14.07;10.40;;;;;;;14.36;100.00;96344.50;4193078;28;20630;-81
2023/10/19 08:08:55;;;;;;;12.70;10.13;;;;;;;14.42;100.00;96346.44;4174829;28;20636;-80
2023/10/19 08:10:58;;;;;;;12.97;9.90;;;;;;;14.48;100.00;96345.72;4169914;28;20667;-81
2023/10/19 08:13:01;;;;;;;13.40;10.80;;;;;;;14.51;100.00;96340.97;4179389;28;20725;-81
2023/10/19 08:15:07;;;;;;;12.70;10.50;;;;;;;14.58;100.00;96346.34;4192535;28;21291;-81
2023/10/19 08:17:12;;;;;;;14.33;11.63;;;;;;;14.60;100.00;96340.78;4165431;28;20624;-80
2023/10/19 08:19:15;;;;;;;12.00;10.50;;;;;;;14.67;100.00;96340.88;4190298;28;20650;-81
2023/10/19 08:21:19;;;;;;;11.47;10.27;;;;;;;14.77;100.00;96342.31;4148187;28;20639;-81
2023/10/19 08:23:27;;;;;;;13.40;10.50;;;;;;;14.93;100.00;96342.22;4173857;28;20639;-80
2023/10/19 08:25:30;;;;;;;13.73;10.20;;;;;;;15.09;100.00;96334.22;4173719;28;20622;-80
2023/10/19 08:27:35;;;;;;;11.50;9.93;;;;;;;15.25;100.00;96337.56;4191350;28;20627;-80
2023/10/19 08:29:40;;;;;;;12.13;9.30;;;;;;;15.41;100.00;96336.63;4193886;28;20610;-81
2023/10/19 08:31:44;;;;;;;10.87;9.77;;;;;;;15.55;100.00;96335.88;4191261;28;20673;-82
2023/10/19 08:33:49;;;;;;;11.67;10.27;;;;;;;15.57;100.00;96335.50;4188337;28;20631;-81
2023/10/19 08:35:53;;;;;;;15.93;10.20;;;;;;;15.59;100.00;96333.50;4190713;28;20620;-81
2023/10/19 08:37:57;;;;;;;11.73;10.00;;;;;;;15.60;100.00;96329.06;4165605;28;20984;-81
2023/10/19 08:40:01;;;;;;;15.03;10.90;;;;;;;15.63;100.00;96331.34;4191631;28;20708;-81
2023/10/19 08:42:05;;;;;;;12.53;10.30;;;;;;;15.69;100.00;96331.44;4178199;28;20635;-81
2023/10/19 08:44:11;;;;;;;14.80;11.53;;;;;;;15.78;100.00;96330.34;4177364;28;20691;-81
2023/10/19 08:46:14;;;;;;;13.17;11.27;;;;;;;15.86;100.00;96327.66;4191767;28;20622;-81
2023/10/19 08:48:18;;;;;;;14.30;11.10;;;;;;;15.94;100.00;96330.22;4188305;28;20723;-81
2023/10/19 08:50:24;;;;;;;14.77;12.00;;;;;;;16.03;100.00;96329.13;4172165;28;20619;-80
2023/10/19 08:52:28;;;;;;;14.20;11.10;;;;;;;16.06;100.00;96328.78;4175335;28;20747;-81
2023/10/19 08:54:33;;;;;;;13.07;11.37;;;;;;;16.07;100.00;96333.00;4189783;28;21205;-81
2023/10/19 08:56:37;;;;;;;13.80;10.67;;;;;;;16.11;100.00;96332.47;4190280;28;20681;-81
2023/10/19 08:58:40;;;;;;;12.83;10.30;;;;;;;16.23;100.00;96333.69;4186043;28;20639;-81
2023/10/19 09:00:46;;;;;;;13.67;11.67;;;;;;;16.39;100.00;96335.28;4192428;28;20644;-81
2023/10/19 09:02:51;;;;;;;11.60;10.40;;;;;;;16.56;100.00;96337.56;4187799;28;20998;-81
2023/10/19 09:04:58;;;;;;;14.97;11.17;;;;;;;16.70;100.00;96334.06;4192097;28;21379;-81
2023/10/19 09:07:08;;;;;;;12.20;10.30;;;;;;;16.75;100.00;96335.16;4164823;28;20634;-81
2023/10/19 09:09:16;;;;;;;10.53;9.47;;;;;;;16.81;100.00;96334.44;4192384;28;20652;-81
2023/10/19 09:11:20;;;;;;;15.10;10.50;;;;;;;16.93;100.00;96330.31;4203376;28;21187;-81
2023/10/19 09:13:24;;;;;;;11.83;9.43;;;;;;;17.02;100.00;96337.09;4192322;28;20718;-81
2023/10/19 09:15:30;;;;;;;10.93;9.63;;;;;;;16.96;100.00;96327.31;4160795;28;20712;-80
2023/10/19 09:17:33;;;;;;;11.97;9.70;;;;;;;16.89;100.00;96317.69;4170587;28;20632;-80
2023/10/19 09:19:38;;;;;;;12.00;10.67;;;;;;;16.89;100.00;96315.06;4191654;28;20665;-81
2023/10/19 09:21:43;;;;;;;12.87;10.13;;;;;;;16.96;100.00;96314.13;4172093;28;20679;-81
2023/10/19 09:23:48;;;;;;;12.60;10.17;;;;;;;17.06;100.00;96315.47;4184959;28;20639;-81
2023/10/19 09:25:52;;;;;;;11.50;10.17;;;;;;;17.18;100.00;96308.66;4179294;28;20636;-81
2023/10/19 09:27:57;;;;;;;11.80;10.40;;;;;;;17.29;100.00;96310.84;4188899;28;20635;-81
2023/10/19 09:30:01;;;;;;;12.70;10.70;;;;;;;17.36;100.00;96311.69;4190718;28;20999;-81
2023/10/19 09:32:04;;;;;;;15.40;10.93;;;;;;;17.43;100.00;96306.50;4185553;28;20654;-81